createdAt,value
2023-04-30T00:02:20.398Z,24.51
2023-04-30T00:04:47.286Z,24.60
2023-04-30T00:07:14.652Z,24.81
2023-04-30T00:09:41.573Z,24.89
2023-04-30T00:12:08.302Z,25.03
2023-04-30T00:14:35.148Z,24.87
2023-04-30T00:17:01.989Z,24.67
2023-04-30T00:19:28.723Z,24.90
2023-04-30T00:21:55.466Z,25.23
2023-04-30T00:24:22.311Z,25.58
2023-04-30T00:26:49.539Z,25.44
2023-04-30T00:29:18.014Z,25.29
2023-04-30T00:31:45.038Z,25.44
2023-04-30T00:34:11.884Z,25.58
2023-04-30T00:36:39.575Z,25.42
2023-04-30T00:39:06.511Z,25.40
2023-04-30T00:41:34.563Z,25.76
2023-04-30T00:44:02.891Z,26.66
2023-04-30T00:46:29.904Z,26.88
2023-04-30T00:48:56.726Z,26.79
2023-04-30T00:51:23.535Z,26.95
2023-04-30T00:53:50.307Z,27.42
2023-04-30T00:56:18.817Z,26.86
2023-04-30T00:58:47.106Z,26.71
2023-04-30T01:01:15.765Z,26.32
2023-04-30T01:03:43.026Z,26.24
2023-04-30T01:06:10.034Z,26.33
2023-04-30T01:08:36.785Z,26.22
2023-04-30T01:11:17.600Z,26.42
2023-04-30T01:13:58.999Z,26.30
2023-04-30T01:16:27.362Z,26.51
2023-04-30T01:19:40.672Z,26.19
2023-04-30T01:22:19.297Z,26.08
2023-04-30T01:25:12.484Z,25.90
2023-04-30T01:27:54.688Z,25.69
2023-04-30T01:30:21.818Z,26.13
2023-04-30T01:32:48.564Z,25.94
2023-04-30T01:35:16.344Z,26.45
2023-04-30T01:38:05.089Z,26.21
2023-04-30T01:40:59.575Z,26.08
2023-04-30T01:44:00.167Z,25.89
2023-04-30T01:46:29.610Z,26.08
2023-04-30T01:49:18.498Z,25.98
2023-04-30T01:51:48.619Z,26.07
2023-04-30T01:54:15.384Z,26.27
2023-04-30T01:56:47.368Z,26.30
2023-04-30T01:59:14.148Z,26.22
2023-04-30T02:01:41.307Z,26.28
2023-04-30T02:04:08.049Z,26.24
2023-04-30T02:06:34.814Z,26.29
2023-04-30T02:09:07.043Z,26.31
2023-04-30T02:11:33.899Z,26.60
2023-04-30T02:14:00.913Z,26.45
2023-04-30T02:16:27.688Z,26.88
2023-04-30T02:18:54.530Z,27.04
2023-04-30T02:21:21.383Z,27.21
2023-04-30T02:23:48.127Z,27.01
2023-04-30T02:26:15.075Z,26.84
2023-04-30T02:28:42.605Z,27.01
2023-04-30T02:31:10.258Z,27.22
2023-04-30T02:33:37.445Z,27.33
2023-04-30T02:36:04.575Z,27.00
2023-04-30T02:38:31.574Z,26.88
2023-04-30T02:40:58.459Z,26.41
2023-04-30T02:43:25.332Z,26.32
2023-04-30T02:45:52.086Z,26.26
2023-04-30T02:48:18.900Z,26.33
2023-04-30T02:50:45.943Z,26.81
2023-04-30T02:53:12.776Z,26.63
2023-04-30T02:55:39.514Z,26.62
2023-04-30T02:58:06.363Z,26.46
2023-04-30T03:00:33.201Z,26.34
2023-04-30T03:03:00.145Z,26.40
2023-04-30T03:05:28.390Z,26.35
2023-04-30T03:07:55.991Z,25.99
2023-04-30T03:10:23.007Z,25.61
2023-04-30T03:12:49.813Z,25.38
2023-04-30T03:15:18.094Z,25.64
2023-04-30T03:17:46.245Z,25.54
2023-04-30T03:20:14.076Z,25.24
2023-04-30T03:22:41.891Z,24.68
2023-04-30T03:25:10.107Z,24.69
2023-04-30T03:27:36.882Z,24.83
2023-04-30T03:30:04.590Z,25.17
2023-04-30T03:32:31.693Z,25.10
2023-04-30T03:34:58.636Z,24.98
2023-04-30T03:37:26.807Z,25.08
2023-04-30T03:39:53.797Z,25.32
2023-04-30T03:42:21.317Z,24.98
2023-04-30T03:44:50.623Z,25.05
2023-04-30T03:47:17.456Z,24.93
2023-04-30T03:49:45.578Z,24.92
2023-04-30T03:52:12.352Z,24.82
2023-04-30T03:54:39.206Z,25.04
2023-04-30T03:57:07.861Z,25.10
2023-04-30T03:59:34.955Z,25.22
2023-04-30T04:02:02.012Z,25.03
2023-04-30T04:04:29.503Z,25.01
2023-04-30T04:06:56.325Z,25.00
2023-04-30T04:09:23.112Z,24.75
2023-04-30T04:11:50.187Z,24.67
2023-04-30T04:14:17.070Z,24.70
2023-04-30T04:16:44.732Z,24.51
2023-04-30T04:19:13.393Z,24.72
2023-04-30T04:21:40.171Z,24.52
2023-04-30T04:24:11.500Z,24.60
2023-04-30T04:26:38.371Z,24.66
2023-04-30T04:29:05.140Z,24.43
2023-04-30T04:31:32.371Z,24.33
2023-04-30T04:34:00.661Z,24.42
2023-04-30T04:36:28.544Z,24.18
2023-04-30T04:38:57.766Z,24.30
2023-04-30T04:41:25.516Z,24.22
2023-04-30T04:43:53.057Z,24.10
2023-04-30T04:46:21.012Z,23.93
2023-04-30T04:48:50.238Z,23.94
2023-04-30T04:51:17.067Z,23.77
2023-04-30T04:53:43.825Z,23.64
2023-04-30T04:56:10.880Z,23.72
2023-04-30T04:58:37.757Z,23.35
2023-04-30T05:01:07.539Z,23.18
2023-04-30T05:03:37.044Z,22.99
2023-04-30T05:06:04.492Z,22.89
2023-04-30T05:08:31.503Z,22.89
2023-04-30T05:10:58.366Z,22.44
2023-04-30T05:13:25.207Z,22.73
2023-04-30T05:15:54.933Z,22.58
2023-04-30T05:18:21.861Z,22.58
2023-04-30T05:20:49.219Z,22.42
2023-04-30T05:23:16.165Z,22.58
2023-04-30T05:25:42.933Z,22.31
2023-04-30T05:28:10.006Z,22.09
2023-04-30T05:30:37.080Z,22.67
2023-04-30T05:33:04.020Z,22.65
2023-04-30T05:35:31.754Z,22.32
2023-04-30T05:37:58.512Z,22.25
2023-04-30T05:40:25.368Z,22.03
2023-04-30T05:42:52.375Z,21.94
2023-04-30T05:45:19.269Z,21.95
2023-04-30T05:47:46.260Z,21.84
2023-04-30T05:50:13.141Z,21.58
2023-04-30T05:52:39.881Z,21.14
2023-04-30T05:55:07.664Z,21.26
2023-04-30T05:57:35.438Z,21.09
2023-04-30T06:00:02.248Z,20.64
2023-04-30T06:02:39.297Z,20.61
2023-04-30T06:05:07.950Z,20.66
2023-04-30T06:07:34.777Z,20.68
2023-04-30T06:10:01.524Z,20.51
2023-04-30T06:12:28.232Z,20.25
2023-04-30T06:14:54.983Z,20.50
2023-04-30T06:17:21.884Z,19.83
2023-04-30T06:19:48.754Z,19.91
2023-04-30T06:22:15.544Z,19.97
2023-04-30T06:24:42.286Z,19.13
2023-04-30T06:27:09.043Z,18.76
2023-04-30T06:29:35.732Z,18.93
2023-04-30T06:32:07.754Z,19.07
2023-04-30T06:34:36.297Z,18.79
2023-04-30T06:37:03.660Z,19.05
2023-04-30T06:39:30.805Z,18.83
2023-04-30T06:41:57.616Z,19.28
2023-04-30T06:44:24.507Z,19.40
2023-04-30T06:46:52.189Z,19.33
2023-04-30T06:49:18.955Z,19.35
2023-04-30T06:51:45.907Z,19.04
2023-04-30T06:54:12.653Z,18.70
2023-04-30T06:56:39.534Z,18.39
2023-04-30T06:59:06.523Z,18.13
2023-04-30T07:01:33.275Z,17.88
2023-04-30T07:04:00.686Z,17.56
2023-04-30T07:06:27.596Z,17.60
2023-04-30T07:08:54.440Z,17.26
2023-04-30T07:11:21.277Z,17.20
2023-04-30T07:13:48.536Z,17.34
2023-04-30T07:16:17.229Z,17.32
2023-04-30T07:18:44.568Z,17.49
2023-04-30T07:21:15.249Z,17.28
2023-04-30T07:23:42.890Z,17.08
2023-04-30T07:26:09.664Z,17.12
2023-04-30T07:28:36.576Z,16.78
2023-04-30T07:31:03.358Z,17.05
2023-04-30T07:33:30.584Z,17.10
2023-04-30T07:35:58.607Z,16.65
2023-04-30T07:38:25.346Z,16.79
2023-04-30T07:43:53.369Z,19.19
2023-04-30T07:46:20.355Z,16.92
2023-04-30T07:48:47.383Z,16.59
2023-04-30T07:51:14.158Z,16.77
2023-04-30T07:53:41.074Z,17.14
2023-04-30T07:56:08.334Z,16.90
2023-04-30T07:58:35.164Z,17.16
2023-04-30T08:01:02.559Z,16.76
2023-04-30T08:03:29.451Z,16.76
2023-04-30T08:05:56.354Z,16.88
2023-04-30T08:08:23.162Z,16.74
2023-04-30T08:10:51.743Z,16.70
2023-04-30T08:13:18.468Z,16.48
2023-04-30T08:15:45.609Z,16.47
2023-04-30T08:18:12.396Z,16.25
2023-04-30T08:20:39.264Z,16.28
2023-04-30T08:23:06.081Z,16.71
2023-04-30T08:25:32.851Z,16.48
2023-04-30T08:27:59.993Z,16.54
2023-04-30T08:30:26.775Z,16.92
2023-04-30T08:32:55.944Z,16.83
2023-04-30T08:35:24.629Z,17.02
2023-04-30T08:37:51.576Z,17.18
2023-04-30T08:40:18.518Z,17.14
2023-04-30T08:42:48.428Z,17.21
2023-04-30T08:45:16.303Z,16.84
2023-04-30T08:47:43.464Z,16.54
2023-04-30T08:50:10.735Z,16.75
2023-04-30T08:52:37.491Z,16.79
2023-04-30T08:55:06.149Z,16.90
2023-04-30T08:57:32.925Z,16.77
2023-04-30T09:00:01.452Z,16.37
2023-04-30T09:02:28.329Z,15.99
2023-04-30T09:04:55.237Z,15.99
2023-04-30T09:07:24.026Z,16.10
2023-04-30T09:09:53.069Z,16.15
2023-04-30T09:12:20.405Z,15.89
2023-04-30T09:15:09.052Z,15.85
2023-04-30T09:17:36.046Z,15.90
2023-04-30T09:20:13.225Z,15.28
2023-04-30T09:22:41.322Z,15.75
2023-04-30T09:25:11.134Z,15.72
2023-04-30T09:27:38.007Z,15.51
2023-04-30T09:30:06.368Z,15.84
2023-04-30T09:32:33.229Z,15.94
2023-04-30T09:35:00.072Z,15.79
2023-04-30T09:37:39.540Z,15.43
2023-04-30T09:40:07.235Z,15.29
2023-04-30T09:42:34.042Z,15.45
2023-04-30T09:45:00.872Z,15.63
2023-04-30T09:47:29.741Z,15.60
2023-04-30T09:49:56.688Z,15.74
2023-04-30T09:52:24.217Z,15.44
2023-04-30T09:54:50.958Z,15.49
2023-04-30T09:57:17.775Z,16.07
2023-04-30T09:59:46.225Z,15.81
2023-04-30T10:02:16.916Z,15.87
2023-04-30T10:04:44.801Z,15.95
2023-04-30T10:07:22.461Z,15.95
2023-04-30T10:09:59.694Z,15.84
2023-04-30T10:12:35.646Z,15.74
2023-04-30T10:15:10.679Z,15.80
2023-04-30T10:17:41.242Z,15.68
2023-04-30T10:20:09.556Z,15.69
2023-04-30T10:22:36.358Z,15.78
2023-04-30T10:25:03.490Z,15.64
2023-04-30T10:27:30.427Z,15.32
2023-04-30T10:29:57.638Z,15.24
2023-04-30T10:32:24.826Z,15.07
2023-04-30T10:35:14.589Z,14.98
2023-04-30T10:37:48.584Z,14.90
2023-04-30T10:40:15.643Z,14.87
2023-04-30T10:42:46.672Z,14.68
2023-04-30T10:45:13.307Z,14.65
2023-04-30T10:47:42.789Z,14.64
2023-04-30T10:50:10.595Z,14.34
2023-04-30T10:52:38.113Z,14.08
2023-04-30T10:55:09.201Z,14.03
2023-04-30T10:57:43.440Z,13.83
2023-04-30T11:00:10.274Z,13.80
2023-04-30T11:02:44.145Z,13.88
2023-04-30T11:05:12.009Z,13.75
2023-04-30T11:07:58.031Z,13.79
2023-04-30T11:10:27.416Z,13.74
2023-04-30T11:12:55.256Z,13.61
2023-04-30T11:15:25.158Z,13.37
2023-04-30T11:17:52.069Z,13.69
2023-04-30T11:20:20.054Z,13.86
2023-04-30T11:22:46.841Z,13.91
2023-04-30T11:25:13.623Z,13.99
2023-04-30T11:27:45.380Z,13.72
2023-04-30T11:30:13.993Z,14.12
2023-04-30T11:32:41.450Z,13.81
2023-04-30T11:35:08.557Z,14.16
2023-04-30T11:37:40.339Z,14.49
2023-04-30T11:40:08.765Z,14.19
2023-04-30T11:42:36.436Z,14.44
2023-04-30T11:45:07.124Z,14.30
2023-04-30T11:47:50.595Z,14.48
2023-04-30T11:50:19.564Z,14.73
2023-04-30T11:52:50.179Z,14.39
2023-04-30T11:55:17.913Z,14.37
2023-04-30T11:57:46.596Z,14.20
2023-04-30T12:00:18.094Z,13.98
2023-04-30T12:02:47.612Z,14.16
2023-04-30T12:05:24.742Z,14.31
2023-04-30T12:08:04.493Z,14.07
2023-04-30T12:10:31.663Z,14.34
2023-04-30T12:12:58.653Z,14.26
2023-04-30T12:15:29.212Z,14.28
2023-04-30T12:17:57.164Z,14.27
2023-04-30T12:20:28.637Z,14.24
2023-04-30T12:22:55.497Z,14.20
2023-04-30T12:25:24.697Z,14.21
2023-04-30T12:27:52.758Z,14.13
2023-04-30T12:30:29.246Z,14.27
2023-04-30T12:33:00.102Z,14.06
2023-04-30T12:35:28.179Z,13.85
2023-04-30T12:38:02.768Z,13.95
2023-04-30T12:40:29.547Z,14.14
2023-04-30T12:43:08.778Z,13.95
2023-04-30T12:45:52.291Z,14.16
2023-04-30T12:48:20.524Z,14.11
2023-04-30T12:50:58.940Z,14.19
2023-04-30T12:53:25.646Z,14.08
2023-04-30T12:56:17.824Z,14.10
2023-04-30T12:58:51.106Z,14.04
2023-04-30T13:01:20.595Z,14.28
2023-04-30T13:03:47.596Z,14.15
2023-04-30T13:06:14.563Z,14.14
2023-04-30T13:08:56.881Z,14.20
2023-04-30T13:11:26.428Z,14.21
2023-04-30T13:13:55.462Z,13.75
2023-04-30T13:16:23.389Z,13.78
2023-04-30T13:18:50.338Z,14.00
2023-04-30T13:21:17.076Z,13.81
2023-04-30T13:23:51.905Z,13.87
2023-04-30T13:26:21.417Z,13.88
2023-04-30T13:28:48.290Z,13.67
2023-04-30T13:31:15.421Z,13.87
2023-04-30T13:33:42.258Z,14.08
2023-04-30T13:36:09.040Z,13.62
2023-04-30T13:38:35.816Z,13.82
2023-04-30T13:41:02.589Z,13.91
2023-04-30T13:43:29.443Z,13.75
2023-04-30T13:45:56.451Z,13.76
2023-04-30T13:48:23.292Z,13.54
2023-04-30T13:50:51.849Z,13.46
2023-04-30T13:53:18.630Z,13.56
2023-04-30T13:55:45.345Z,13.85
2023-04-30T13:58:13.059Z,13.79
2023-04-30T14:00:39.837Z,14.20
2023-04-30T14:03:08.079Z,14.21
2023-04-30T14:05:36.332Z,14.47
2023-04-30T14:08:04.004Z,14.75
2023-04-30T14:10:30.804Z,14.69
2023-04-30T14:12:57.991Z,14.65
2023-04-30T14:15:24.830Z,14.47
2023-04-30T14:17:53.110Z,14.58
2023-04-30T14:20:20.161Z,14.51
2023-04-30T14:22:47.046Z,14.39
2023-04-30T14:25:13.859Z,14.62
2023-04-30T14:27:41.361Z,14.67
2023-04-30T14:30:09.296Z,14.42
2023-04-30T14:32:37.369Z,14.29
2023-04-30T14:35:05.339Z,14.29
2023-04-30T14:37:32.174Z,14.42
2023-04-30T14:40:00.457Z,14.03
2023-04-30T14:42:27.218Z,14.39
2023-04-30T14:44:54.135Z,14.58
2023-04-30T14:47:21.588Z,14.47
2023-04-30T14:49:50.329Z,14.92
2023-04-30T14:52:17.207Z,14.76
2023-04-30T14:54:44.336Z,14.82
2023-04-30T14:57:16.025Z,14.84
2023-04-30T14:59:43.371Z,14.95
2023-04-30T15:02:11.161Z,14.91
2023-04-30T15:04:38.293Z,14.86
2023-04-30T15:07:05.277Z,14.83
2023-04-30T15:09:32.126Z,15.01
2023-04-30T15:11:58.944Z,14.91
2023-04-30T15:14:25.760Z,14.99
2023-04-30T15:16:52.599Z,15.03
2023-04-30T15:19:19.369Z,15.11
2023-04-30T15:21:48.982Z,14.89
2023-04-30T15:24:16.124Z,15.23
2023-04-30T15:26:42.942Z,15.17
2023-04-30T15:29:10.669Z,15.14
2023-04-30T15:31:37.808Z,15.35
2023-04-30T15:34:04.555Z,15.14
2023-04-30T15:36:32.062Z,15.22
2023-04-30T15:38:59.060Z,15.51
2023-04-30T15:41:26.045Z,15.59
2023-04-30T15:43:52.826Z,15.42
2023-04-30T15:46:19.638Z,15.58
2023-04-30T15:48:46.428Z,15.30
2023-04-30T15:51:13.191Z,15.50
2023-04-30T15:53:40.460Z,15.67
2023-04-30T15:56:07.468Z,15.49
2023-04-30T15:58:34.309Z,15.80
2023-04-30T16:01:02.003Z,15.70
2023-04-30T16:03:28.911Z,15.94
2023-04-30T16:05:56.051Z,16.04
2023-04-30T16:08:22.843Z,15.84
2023-04-30T16:10:49.811Z,15.79
2023-04-30T16:13:16.592Z,15.89
2023-04-30T16:15:43.323Z,15.78
2023-04-30T16:18:10.110Z,15.98
2023-04-30T16:20:37.431Z,15.78
2023-04-30T16:23:04.865Z,15.85
2023-04-30T16:25:34.369Z,16.11
2023-04-30T16:28:01.193Z,16.17
2023-04-30T16:30:27.907Z,16.11
2023-04-30T16:32:54.672Z,16.12
2023-04-30T16:35:21.414Z,15.80
2023-04-30T16:37:51.214Z,15.74
2023-04-30T16:40:18.012Z,16.02
2023-04-30T16:42:44.973Z,15.92
2023-04-30T16:45:11.933Z,16.10
2023-04-30T16:47:40.226Z,15.89
2023-04-30T16:50:08.200Z,16.37
2023-04-30T16:52:34.967Z,16.34
2023-04-30T16:55:02.383Z,16.46
2023-04-30T16:57:29.159Z,16.23
2023-04-30T16:59:56.135Z,16.47
2023-04-30T17:02:23.774Z,16.42
2023-04-30T17:04:51.194Z,16.30
2023-04-30T17:07:18.008Z,16.56
2023-04-30T17:09:44.809Z,16.42
2023-04-30T17:12:12.010Z,16.53
2023-04-30T17:14:38.745Z,16.82
2023-04-30T17:17:05.477Z,16.79
2023-04-30T17:19:32.250Z,17.13
2023-04-30T17:21:59.028Z,17.60
2023-04-30T17:24:25.912Z,17.84
2023-04-30T17:26:53.442Z,17.99
2023-04-30T17:29:21.005Z,18.17
2023-04-30T17:31:48.954Z,17.95
2023-04-30T17:34:15.851Z,18.34
2023-04-30T17:36:44.543Z,18.41
2023-04-30T17:39:11.426Z,18.71
2023-04-30T17:41:38.167Z,18.55
2023-04-30T17:44:04.962Z,18.20
2023-04-30T17:46:31.725Z,18.91
2023-04-30T17:49:01.692Z,19.87
2023-04-30T17:51:31.735Z,20.03
2023-04-30T17:54:01.815Z,20.26
2023-04-30T17:56:31.318Z,20.24
2023-04-30T17:58:58.388Z,20.75
2023-04-30T18:01:25.992Z,21.92
2023-04-30T18:03:53.662Z,22.35
2023-04-30T18:06:20.596Z,22.25
2023-04-30T18:08:47.475Z,22.32
2023-04-30T18:11:14.667Z,22.39
2023-04-30T18:13:41.515Z,22.24
2023-04-30T18:16:08.460Z,22.07
2023-04-30T18:18:35.625Z,22.13
2023-04-30T18:21:03.812Z,22.10
2023-04-30T18:23:30.659Z,22.02
2023-04-30T18:25:57.539Z,22.07
2023-04-30T18:28:24.824Z,22.02
2023-04-30T18:30:51.663Z,22.36
2023-04-30T18:33:18.481Z,22.75
2023-04-30T18:35:49.883Z,22.98
2023-04-30T18:38:16.631Z,22.72
2023-04-30T18:40:43.409Z,22.60
2023-04-30T18:43:10.202Z,22.98
2023-04-30T18:45:36.923Z,23.24
2023-04-30T18:48:03.858Z,23.07
2023-04-30T18:50:30.657Z,23.16
2023-04-30T18:52:57.404Z,23.35
2023-04-30T18:55:24.368Z,23.31
2023-04-30T18:57:51.516Z,23.56
2023-04-30T19:00:18.253Z,23.42
2023-04-30T19:02:45.222Z,23.41
2023-04-30T19:05:12.367Z,23.28
2023-04-30T19:07:40.011Z,23.24
2023-04-30T19:10:07.202Z,23.94
2023-04-30T19:12:34.313Z,24.28
2023-04-30T19:15:01.071Z,24.20
2023-04-30T19:17:28.058Z,24.47
2023-04-30T19:19:58.265Z,24.71
2023-04-30T19:22:25.911Z,24.61
2023-04-30T19:24:52.834Z,24.67
2023-04-30T19:27:19.575Z,24.64
2023-04-30T19:29:46.468Z,24.71
2023-04-30T19:32:13.398Z,24.81
2023-04-30T19:34:40.618Z,25.01
2023-04-30T19:37:07.371Z,25.25
2023-04-30T19:39:36.582Z,26.00
2023-04-30T19:42:04.214Z,25.80
2023-04-30T19:44:30.955Z,25.53
2023-04-30T19:46:58.327Z,25.47
2023-04-30T19:49:26.493Z,26.80
2023-04-30T19:51:54.577Z,25.88
2023-04-30T19:54:21.316Z,25.50
2023-04-30T19:56:48.033Z,25.68
2023-04-30T20:00:26.164Z,30.30
2023-04-30T20:02:53.031Z,27.05
2023-04-30T20:05:19.870Z,26.43
2023-04-30T20:07:46.607Z,26.49
2023-04-30T20:10:13.609Z,26.49
2023-04-30T20:12:40.994Z,26.16
2023-04-30T20:15:08.234Z,26.14
2023-04-30T20:17:36.118Z,25.89
2023-04-30T20:20:03.253Z,26.30
2023-04-30T20:22:30.076Z,26.36
2023-04-30T20:24:56.927Z,26.61
2023-04-30T20:27:23.846Z,26.47
2023-04-30T20:29:50.573Z,27.30
2023-04-30T20:32:17.848Z,27.36
2023-04-30T20:34:44.636Z,27.26
2023-04-30T20:37:11.565Z,27.41
2023-04-30T20:39:38.559Z,27.37
2023-04-30T20:42:05.459Z,27.03
2023-04-30T20:44:33.635Z,27.16
2023-04-30T20:47:03.082Z,27.15
2023-04-30T20:49:30.017Z,26.99
2023-04-30T20:51:56.743Z,26.61
2023-04-30T20:54:23.742Z,26.54
2023-04-30T20:56:50.567Z,26.35
2023-04-30T20:59:17.302Z,26.11
2023-04-30T21:01:44.092Z,26.07
2023-04-30T21:04:11.320Z,25.80
2023-04-30T21:06:38.499Z,26.31
2023-04-30T21:09:06.287Z,26.38
2023-04-30T21:11:33.153Z,25.84
2023-04-30T21:13:59.863Z,26.00
2023-04-30T21:16:27.665Z,26.28
2023-04-30T21:18:59.478Z,27.23
2023-04-30T21:21:27.538Z,27.34
2023-04-30T21:23:54.365Z,26.46
2023-04-30T21:26:24.275Z,26.56
2023-04-30T21:28:52.566Z,27.00
2023-04-30T21:31:19.505Z,27.02
2023-04-30T21:33:47.156Z,27.87
2023-04-30T21:36:16.440Z,27.91
2023-04-30T21:38:46.117Z,27.52
2023-04-30T21:41:16.740Z,27.07
2023-04-30T21:43:43.596Z,26.71
2023-04-30T21:46:11.119Z,27.53
2023-04-30T21:48:40.956Z,27.95
2023-04-30T21:51:12.594Z,28.01
2023-04-30T21:53:39.415Z,27.77
2023-04-30T21:56:09.788Z,28.15
2023-04-30T21:58:37.402Z,27.89
2023-04-30T22:01:05.169Z,27.04
2023-04-30T22:03:32.246Z,26.59
2023-04-30T22:05:59.333Z,26.08
2023-04-30T22:08:26.184Z,26.37
2023-04-30T22:10:58.445Z,26.34
2023-04-30T22:13:28.685Z,27.23
2023-04-30T22:15:55.491Z,28.39
2023-04-30T22:18:22.805Z,27.73
2023-04-30T22:20:50.431Z,27.40
2023-04-30T22:23:23.610Z,27.66
2023-04-30T22:25:50.571Z,27.95
2023-04-30T22:28:19.185Z,27.84
2023-04-30T22:30:46.359Z,27.93
2023-04-30T22:33:13.252Z,27.96
2023-04-30T22:35:40.233Z,28.45
2023-04-30T22:38:07.400Z,28.04
2023-04-30T22:40:34.877Z,27.94
2023-04-30T22:43:01.989Z,27.82
2023-04-30T22:45:31.926Z,27.68
2023-04-30T22:48:01.314Z,27.66
2023-04-30T22:50:28.723Z,27.57
2023-04-30T22:52:56.421Z,27.71
2023-04-30T22:55:23.203Z,27.71
2023-04-30T22:57:50.725Z,27.30
2023-04-30T23:00:19.207Z,27.57
2023-04-30T23:02:46.099Z,27.76
2023-04-30T23:05:13.310Z,28.28
2023-04-30T23:07:40.154Z,29.04
2023-04-30T23:10:07.616Z,28.92
2023-04-30T23:12:35.678Z,28.67
2023-04-30T23:15:02.402Z,28.64
2023-04-30T23:17:29.361Z,28.92
2023-04-30T23:19:56.512Z,28.86
2023-04-30T23:22:24.771Z,28.61
2023-04-30T23:24:51.906Z,28.58
2023-04-30T23:27:18.974Z,28.80
2023-04-30T23:29:46.150Z,29.17
2023-04-30T23:32:12.923Z,29.41
2023-04-30T23:34:39.715Z,29.16
2023-04-30T23:37:06.879Z,29.11
2023-04-30T23:39:33.629Z,29.42
2023-04-30T23:42:00.407Z,29.16
2023-04-30T23:44:27.120Z,29.24
2023-04-30T23:46:55.693Z,29.55
2023-04-30T23:49:24.816Z,29.60
2023-04-30T23:51:51.865Z,29.47
2023-04-30T23:54:18.751Z,29.83
2023-04-30T23:56:46.404Z,30.06
2023-04-30T23:59:13.183Z,29.83
